createdAt,value
2023-01-17T00:00:34.823Z,69.80
2023-01-17T00:03:01.519Z,67.70
2023-01-17T00:05:46.819Z,67.50
2023-01-17T00:08:32.318Z,64.40
2023-01-17T00:10:59.098Z,65.50
2023-01-17T00:13:25.767Z,66.70
2023-01-17T00:15:53.031Z,65.40
2023-01-17T00:18:19.737Z,64.80
2023-01-17T00:21:05.064Z,64.40
2023-01-17T00:23:50.454Z,65.50
2023-01-17T00:26:19.056Z,64.10
2023-01-17T00:28:46.702Z,65.10
2023-01-17T00:31:14.805Z,63.50
2023-01-17T00:33:41.472Z,62.80
2023-01-17T00:36:08.881Z,67.30
2023-01-17T00:38:37.582Z,67.00
2023-01-17T00:41:08.638Z,66.70
2023-01-17T00:43:53.976Z,66.30
2023-01-17T00:46:39.638Z,64.70
2023-01-17T00:49:25.030Z,65.50
2023-01-17T00:52:10.509Z,67.50
2023-01-17T00:54:56.053Z,67.20
2023-01-17T00:57:41.206Z,66.80
2023-01-17T01:00:27.276Z,66.20
2023-01-17T01:03:12.643Z,63.90
2023-01-17T01:05:58.185Z,65.10
2023-01-17T01:08:46.226Z,65.90
2023-01-17T01:11:35.106Z,67.00
2023-01-17T01:14:20.550Z,66.80
2023-01-17T01:17:05.996Z,67.10
2023-01-17T01:19:51.566Z,66.50
2023-01-17T01:22:37.051Z,66.90
2023-01-17T01:25:22.547Z,67.80
2023-01-17T01:28:08.042Z,67.50
2023-01-17T01:30:53.373Z,64.70
2023-01-17T01:33:20.059Z,64.50
2023-01-17T01:35:50.986Z,64.40
2023-01-17T01:38:18.937Z,65.50
2023-01-17T01:40:51.558Z,64.60
2023-01-17T01:43:21.200Z,65.80
2023-01-17T01:45:54.733Z,66.40
2023-01-17T01:48:25.712Z,63.50
2023-01-17T01:50:52.507Z,65.90
2023-01-17T01:53:20.281Z,64.00
2023-01-17T01:55:49.393Z,64.00
2023-01-17T01:58:24.923Z,66.30
2023-01-17T02:00:51.624Z,66.40
2023-01-17T02:03:21.979Z,66.30
2023-01-17T02:05:48.846Z,68.10
2023-01-17T02:08:17.620Z,66.40
2023-01-17T02:11:04.611Z,66.60
2023-01-17T02:13:31.544Z,67.20
2023-01-17T02:16:20.068Z,68.00
2023-01-17T02:18:57.315Z,69.60
2023-01-17T02:21:27.797Z,68.80
2023-01-17T02:24:03.131Z,67.60
2023-01-17T02:26:48.824Z,69.90
2023-01-17T02:29:54.689Z,68.40
2023-01-17T02:32:33.226Z,70.20
2023-01-17T02:35:12.348Z,70.90
2023-01-17T02:37:41.461Z,70.00
2023-01-17T02:40:23.461Z,69.70
2023-01-17T02:42:56.957Z,70.10
2023-01-17T02:45:23.588Z,70.00
2023-01-17T02:47:50.353Z,70.40
2023-01-17T02:50:24.286Z,69.00
2023-01-17T02:53:08.073Z,70.10
2023-01-17T02:55:59.786Z,68.60
2023-01-17T02:58:44.577Z,72.10
2023-01-17T03:01:35.010Z,71.60
2023-01-17T03:04:18.451Z,71.70
2023-01-17T03:06:56.153Z,71.00
2023-01-17T03:09:23.184Z,70.90
2023-01-17T03:11:49.830Z,71.40
2023-01-17T03:14:16.679Z,70.60
2023-01-17T03:16:43.470Z,72.30
2023-01-17T03:19:10.673Z,72.50
2023-01-17T03:21:37.476Z,72.30
2023-01-17T03:24:04.740Z,71.30
2023-01-17T03:26:31.737Z,73.80
2023-01-17T03:28:58.455Z,72.60
2023-01-17T03:31:25.122Z,72.20
2023-01-17T03:33:51.801Z,71.60
2023-01-17T03:36:20.165Z,72.30
2023-01-17T03:38:46.829Z,71.10
2023-01-17T03:41:13.469Z,70.70
2023-01-17T03:43:40.109Z,71.40
2023-01-17T03:46:16.452Z,70.70
2023-01-17T03:48:43.229Z,71.30
2023-01-17T03:51:09.855Z,72.00
2023-01-17T03:53:36.487Z,72.90
2023-01-17T03:56:03.208Z,72.20
2023-01-17T03:58:29.839Z,71.70
2023-01-17T04:00:56.565Z,74.00
2023-01-17T04:03:23.813Z,73.10
2023-01-17T04:05:50.548Z,72.50
2023-01-17T04:08:17.414Z,72.70
2023-01-17T04:10:44.066Z,72.90
2023-01-17T04:13:10.741Z,72.40
2023-01-17T04:15:37.358Z,72.10
2023-01-17T04:18:04.926Z,72.10
2023-01-17T04:20:39.124Z,72.30
2023-01-17T04:23:06.194Z,73.00
2023-01-17T04:25:32.931Z,73.70
2023-01-17T04:28:00.890Z,71.50
2023-01-17T04:30:28.420Z,72.30
2023-01-17T04:32:56.053Z,71.80
2023-01-17T04:35:23.035Z,71.90
2023-01-17T04:37:50.320Z,71.10
2023-01-17T04:40:17.339Z,69.90
2023-01-17T04:42:47.174Z,70.00
2023-01-17T04:45:14.741Z,71.20
2023-01-17T04:47:41.556Z,70.50
2023-01-17T04:50:09.532Z,70.70
2023-01-17T04:52:36.225Z,69.90
2023-01-17T04:55:02.951Z,68.40
2023-01-17T04:57:29.582Z,69.30
2023-01-17T04:59:56.322Z,68.20
2023-01-17T05:02:23.015Z,69.10
2023-01-17T05:04:49.721Z,69.80
2023-01-17T05:07:16.347Z,70.30
2023-01-17T05:09:43.775Z,70.40
2023-01-17T05:12:10.870Z,70.30
2023-01-17T05:14:37.635Z,69.60
2023-01-17T05:17:04.355Z,68.20
2023-01-17T05:19:31.028Z,68.80
2023-01-17T05:22:04.177Z,67.30
2023-01-17T05:24:32.184Z,66.90
2023-01-17T05:27:02.906Z,67.90
2023-01-17T05:29:30.388Z,66.30
2023-01-17T05:31:57.266Z,65.80
2023-01-17T05:34:24.057Z,67.30
2023-01-17T05:36:50.858Z,65.40
2023-01-17T05:39:17.505Z,67.60
2023-01-17T05:41:44.557Z,65.50
2023-01-17T05:44:11.541Z,65.70
2023-01-17T05:46:38.388Z,65.00
2023-01-17T05:49:05.527Z,65.50
2023-01-17T05:51:32.501Z,65.10
2023-01-17T05:53:59.137Z,63.10
2023-01-17T05:56:25.881Z,62.70
2023-01-17T05:58:52.517Z,63.00
2023-01-17T06:01:19.484Z,59.90
2023-01-17T06:03:46.242Z,58.70
2023-01-17T06:06:13.156Z,59.70
2023-01-17T06:08:39.869Z,63.20
2023-01-17T06:11:06.612Z,63.40
2023-01-17T06:13:33.252Z,61.50
2023-01-17T06:16:04.044Z,59.50
2023-01-17T06:18:31.893Z,60.90
2023-01-17T06:20:58.691Z,60.80
2023-01-17T06:23:25.569Z,60.10
2023-01-17T06:25:52.684Z,59.60
2023-01-17T06:28:21.176Z,59.80
2023-01-17T06:30:48.455Z,60.70
2023-01-17T06:33:15.309Z,58.90
2023-01-17T06:35:52.266Z,59.10
2023-01-17T06:38:19.653Z,58.70
2023-01-17T06:40:46.318Z,58.10
2023-01-17T06:43:12.949Z,58.70
2023-01-17T06:45:39.592Z,59.50
2023-01-17T06:48:06.676Z,58.20
2023-01-17T06:50:33.719Z,57.50
2023-01-17T06:53:03.562Z,57.50
2023-01-17T06:55:31.147Z,56.50
2023-01-17T06:57:59.679Z,55.20
2023-01-17T07:00:30.262Z,55.90
2023-01-17T07:02:56.987Z,55.40
2023-01-17T07:05:23.706Z,55.60
2023-01-17T07:07:50.363Z,54.30
2023-01-17T07:10:17.092Z,56.10
2023-01-17T07:12:43.801Z,55.10
2023-01-17T07:15:11.071Z,55.60
2023-01-17T07:17:38.442Z,55.80
2023-01-17T07:20:06.170Z,55.60
2023-01-17T07:22:32.844Z,55.80
2023-01-17T07:25:00.323Z,54.50
2023-01-17T07:27:30.234Z,55.40
2023-01-17T07:29:57.687Z,55.20
2023-01-17T07:32:26.545Z,57.00
2023-01-17T07:34:53.816Z,56.40
2023-01-17T07:37:20.995Z,56.40
2023-01-17T07:39:47.921Z,57.40
2023-01-17T07:42:14.592Z,57.50
2023-01-17T07:44:44.011Z,58.40
2023-01-17T07:47:11.434Z,59.50
2023-01-17T07:49:38.259Z,61.10
2023-01-17T07:52:07.417Z,60.70
2023-01-17T07:54:34.449Z,59.20
2023-01-17T07:57:01.656Z,63.20
2023-01-17T07:59:28.381Z,60.70
2023-01-17T08:01:55.179Z,60.30
2023-01-17T08:04:24.764Z,67.30
2023-01-17T08:06:51.700Z,67.10
2023-01-17T08:09:18.351Z,70.00
2023-01-17T08:11:45.017Z,75.10
2023-01-17T08:14:11.649Z,68.80
2023-01-17T08:16:39.985Z,73.10
2023-01-17T08:19:06.799Z,77.20
2023-01-17T08:21:33.469Z,77.50
2023-01-17T08:24:00.140Z,76.30
2023-01-17T08:26:27.525Z,79.30
2023-01-17T08:28:57.724Z,83.50
2023-01-17T08:31:24.810Z,87.10
2023-01-17T08:33:51.571Z,87.00
2023-01-17T08:36:18.303Z,86.30
2023-01-17T08:38:45.077Z,87.10
2023-01-17T08:41:12.896Z,89.30
2023-01-17T08:43:39.558Z,91.20
2023-01-17T08:46:06.493Z,91.60
2023-01-17T08:48:33.241Z,92.50
2023-01-17T08:51:02.799Z,92.20
2023-01-17T08:53:29.929Z,91.20
2023-01-17T08:56:00.691Z,91.80
2023-01-17T08:58:30.556Z,91.60
2023-01-17T09:01:05.563Z,90.80
2023-01-17T09:03:33.901Z,90.40
2023-01-17T09:06:02.482Z,90.10
2023-01-17T09:08:29.187Z,89.60
2023-01-17T09:10:55.839Z,91.60
2023-01-17T09:13:22.715Z,91.50
2023-01-17T09:15:49.488Z,92.80
2023-01-17T09:18:16.144Z,91.70
2023-01-17T09:20:42.901Z,91.80
2023-01-17T09:23:09.561Z,92.10
2023-01-17T09:25:36.209Z,91.60
2023-01-17T09:28:02.857Z,90.50
2023-01-17T09:30:29.482Z,91.60
2023-01-17T09:32:56.224Z,91.70
2023-01-17T09:35:22.928Z,93.20
2023-01-17T09:37:50.985Z,92.60
2023-01-17T09:40:21.149Z,92.20
2023-01-17T09:42:50.845Z,91.90
2023-01-17T09:45:19.104Z,92.80
2023-01-17T09:47:51.264Z,91.70
2023-01-17T09:50:41.849Z,92.30
2023-01-17T09:53:20.901Z,92.40
2023-01-17T09:55:54.835Z,91.20
2023-01-17T09:58:30.964Z,92.10
2023-01-17T10:01:17.365Z,91.40
2023-01-17T10:04:06.364Z,92.50
2023-01-17T10:06:58.699Z,93.40
2023-01-17T10:09:56.044Z,93.50
2023-01-17T10:12:22.626Z,92.80
2023-01-17T10:15:12.234Z,93.80
2023-01-17T10:18:02.135Z,93.40
2023-01-17T10:20:42.247Z,94.10
2023-01-17T10:23:22.074Z,95.20
2023-01-17T10:25:52.431Z,95.20
2023-01-17T10:28:30.966Z,93.70
2023-01-17T10:31:07.747Z,94.40
2023-01-17T10:33:55.018Z,94.80
2023-01-17T10:36:36.223Z,94.40
2023-01-17T10:39:20.677Z,94.10
2023-01-17T10:42:03.250Z,94.60
2023-01-17T10:44:43.241Z,94.50
2023-01-17T10:47:15.538Z,93.80
2023-01-17T10:49:45.386Z,93.90
2023-01-17T10:52:35.158Z,94.10
2023-01-17T10:55:16.955Z,93.50
2023-01-17T10:57:45.459Z,93.20
2023-01-17T11:00:48.326Z,93.00
2023-01-17T11:03:17.486Z,93.20
2023-01-17T11:05:44.421Z,94.10
2023-01-17T11:08:13.461Z,93.80
2023-01-17T11:10:49.669Z,93.70
2023-01-17T11:13:36.803Z,93.80
2023-01-17T11:16:06.755Z,94.30
2023-01-17T11:18:36.687Z,93.80
2023-01-17T11:21:23.685Z,93.90
2023-01-17T11:23:54.742Z,93.70
2023-01-17T11:26:28.085Z,93.70
2023-01-17T11:29:13.531Z,93.70
2023-01-17T11:31:40.453Z,94.00
2023-01-17T11:34:15.548Z,94.00
2023-01-17T11:36:42.320Z,94.70
2023-01-17T11:39:17.961Z,94.30
2023-01-17T11:41:46.057Z,94.20
2023-01-17T11:44:21.567Z,93.90
2023-01-17T11:46:48.539Z,94.90
2023-01-17T11:49:25.403Z,96.20
2023-01-17T11:51:56.195Z,96.10
2023-01-17T11:54:33.409Z,94.20
2023-01-17T11:57:01.156Z,94.50
2023-01-17T11:59:37.389Z,92.90
2023-01-17T12:02:24.055Z,93.40
2023-01-17T12:05:39.118Z,94.40
2023-01-17T12:08:30.454Z,93.60
2023-01-17T12:11:14.851Z,96.00
2023-01-17T12:14:07.271Z,94.30
2023-01-17T12:17:01.113Z,95.70
2023-01-17T12:20:00.920Z,94.50
2023-01-17T12:22:51.516Z,95.60
2023-01-17T12:25:28.753Z,94.00
2023-01-17T12:28:24.115Z,94.80
2023-01-17T12:31:11.001Z,95.10
2023-01-17T12:34:16.865Z,92.90
2023-01-17T12:37:03.610Z,91.30
2023-01-17T12:39:37.148Z,91.50
2023-01-17T12:42:09.018Z,91.10
2023-01-17T12:44:45.542Z,91.60
2023-01-17T12:47:14.033Z,91.90
2023-01-17T12:49:47.752Z,92.30
2023-01-17T12:52:33.757Z,90.70
2023-01-17T12:55:05.630Z,91.00
2023-01-17T12:57:35.602Z,91.60
2023-01-17T13:00:06.851Z,90.00
2023-01-17T13:02:45.349Z,86.90
2023-01-17T13:05:29.342Z,89.60
2023-01-17T13:08:20.427Z,90.40
2023-01-17T13:10:55.997Z,88.10
2023-01-17T13:13:28.859Z,85.60
2023-01-17T13:16:00.312Z,85.00
2023-01-17T13:18:29.915Z,86.60
2023-01-17T13:21:04.878Z,85.00
2023-01-17T13:23:53.892Z,86.00
2023-01-17T13:26:40.176Z,88.50
2023-01-17T13:29:15.935Z,90.00
2023-01-17T13:31:48.319Z,90.10
2023-01-17T13:34:25.175Z,86.10
2023-01-17T13:37:00.633Z,83.00
2023-01-17T13:39:39.112Z,75.90
2023-01-17T13:42:36.605Z,73.60
2023-01-17T13:45:09.091Z,71.20
2023-01-17T13:47:38.817Z,75.80
2023-01-17T13:50:06.589Z,77.40
2023-01-17T13:52:33.803Z,67.80
2023-01-17T13:55:02.948Z,67.00
2023-01-17T13:57:40.679Z,70.90
2023-01-17T14:00:15.912Z,65.60
2023-01-17T14:02:43.082Z,67.80
2023-01-17T14:05:15.912Z,67.60
2023-01-17T14:07:49.686Z,64.20
2023-01-17T14:10:33.806Z,54.10
2023-01-17T14:13:01.852Z,65.10
2023-01-17T14:15:30.037Z,58.60
2023-01-17T14:18:03.063Z,60.20
2023-01-17T14:20:43.341Z,58.80
2023-01-17T14:23:29.330Z,62.90
2023-01-17T14:25:59.338Z,61.60
2023-01-17T14:28:30.959Z,58.30
2023-01-17T14:30:59.304Z,56.70
2023-01-17T14:33:37.391Z,58.40
2023-01-17T14:36:28.151Z,58.00
2023-01-17T14:38:54.942Z,59.70
2023-01-17T14:41:26.649Z,60.40
2023-01-17T14:43:53.731Z,63.80
2023-01-17T14:46:22.962Z,65.20
2023-01-17T14:48:51.034Z,63.00
2023-01-17T14:51:22.587Z,65.70
2023-01-17T14:53:57.069Z,66.60
2023-01-17T14:56:25.803Z,63.70
2023-01-17T14:59:25.040Z,66.30
2023-01-17T15:02:07.585Z,68.20
2023-01-17T15:04:39.817Z,66.00
2023-01-17T15:07:07.987Z,68.90
2023-01-17T15:09:38.558Z,67.60
2023-01-17T15:12:09.616Z,66.60
2023-01-17T15:14:38.800Z,65.30
2023-01-17T15:17:18.776Z,61.40
2023-01-17T15:19:49.056Z,62.30
2023-01-17T15:22:16.766Z,64.80
2023-01-17T15:24:44.720Z,66.60
2023-01-17T15:27:16.935Z,67.90
2023-01-17T15:29:45.866Z,62.90
2023-01-17T15:32:24.243Z,66.90
2023-01-17T15:34:51.786Z,65.10
2023-01-17T15:37:39.759Z,65.40
2023-01-17T15:40:19.877Z,63.40
2023-01-17T15:42:52.834Z,65.10
2023-01-17T15:45:23.627Z,63.60
2023-01-17T15:47:50.441Z,63.60
2023-01-17T15:50:20.543Z,65.50
2023-01-17T15:52:52.153Z,61.50
2023-01-17T15:55:29.744Z,59.80
2023-01-17T15:57:56.690Z,63.00
2023-01-17T16:00:45.140Z,63.20
2023-01-17T16:03:31.062Z,62.60
2023-01-17T16:06:00.232Z,63.10
2023-01-17T16:08:33.911Z,65.00
2023-01-17T16:11:02.873Z,64.80
2023-01-17T16:13:31.578Z,66.00
2023-01-17T16:16:19.531Z,66.90
2023-01-17T16:18:47.780Z,67.00
2023-01-17T16:21:21.294Z,65.20
2023-01-17T16:23:47.986Z,61.00
2023-01-17T16:26:15.375Z,62.80
2023-01-17T16:28:42.020Z,64.40
2023-01-17T16:31:08.736Z,66.40
2023-01-17T16:33:35.437Z,65.70
2023-01-17T16:36:02.102Z,64.50
2023-01-17T16:38:28.832Z,65.70
2023-01-17T16:40:55.534Z,65.00
2023-01-17T16:43:22.273Z,66.00
2023-01-17T16:45:52.473Z,65.70
2023-01-17T16:48:20.244Z,65.10
2023-01-17T16:50:50.658Z,65.50
2023-01-17T16:53:22.563Z,65.40
2023-01-17T16:55:53.345Z,65.90
2023-01-17T16:58:20.324Z,64.80
2023-01-17T17:00:47.601Z,64.20
2023-01-17T17:03:18.483Z,64.30
2023-01-17T17:05:47.120Z,62.80
2023-01-17T17:08:15.315Z,61.40
2023-01-17T17:10:42.045Z,62.20
2023-01-17T17:13:08.729Z,59.60
2023-01-17T17:15:35.385Z,60.70
2023-01-17T17:18:02.076Z,57.50
2023-01-17T17:20:28.859Z,60.40
2023-01-17T17:22:55.477Z,60.50
2023-01-17T17:25:22.181Z,59.70
2023-01-17T17:27:49.012Z,59.80
2023-01-17T17:30:15.985Z,60.10
2023-01-17T17:32:45.860Z,56.20
2023-01-17T17:35:12.513Z,60.70
2023-01-17T17:37:39.246Z,56.30
2023-01-17T17:40:06.396Z,54.20
2023-01-17T17:42:33.095Z,53.30
2023-01-17T17:44:59.928Z,50.90
2023-01-17T17:47:26.603Z,49.70
2023-01-17T17:49:53.239Z,52.70
2023-01-17T17:52:19.994Z,49.10
2023-01-17T17:54:48.310Z,52.30
2023-01-17T17:57:15.037Z,53.40
2023-01-17T17:59:41.637Z,53.50
2023-01-17T18:02:10.992Z,54.30
2023-01-17T18:04:38.004Z,53.60
2023-01-17T18:07:04.785Z,55.30
2023-01-17T18:09:31.565Z,56.50
2023-01-17T18:11:58.462Z,58.10
2023-01-17T18:14:25.111Z,57.80
2023-01-17T18:16:51.966Z,58.30
2023-01-17T18:19:21.214Z,57.20
2023-01-17T18:21:49.255Z,58.10
2023-01-17T18:24:17.500Z,58.50
2023-01-17T18:26:49.854Z,57.80
2023-01-17T18:29:17.748Z,56.50
2023-01-17T18:31:45.205Z,56.80
2023-01-17T18:34:14.578Z,57.10
2023-01-17T18:36:41.351Z,57.20
2023-01-17T18:39:28.719Z,56.40
2023-01-17T18:41:55.609Z,57.60
2023-01-17T18:44:22.833Z,57.00
2023-01-17T18:46:50.688Z,56.30
2023-01-17T18:49:19.118Z,58.10
2023-01-17T18:51:49.128Z,57.90
2023-01-17T18:54:16.545Z,57.80
2023-01-17T18:56:43.192Z,57.70
2023-01-17T18:59:12.808Z,60.10
2023-01-17T19:01:42.275Z,59.50
2023-01-17T19:04:10.152Z,60.50
2023-01-17T19:06:39.236Z,60.10
2023-01-17T19:09:07.436Z,60.00
2023-01-17T19:11:35.309Z,59.60
2023-01-17T19:14:02.800Z,57.10
2023-01-17T19:16:32.039Z,59.90
2023-01-17T19:19:02.327Z,59.70
2023-01-17T19:21:29.451Z,58.60
2023-01-17T19:23:57.079Z,58.50
2023-01-17T19:26:26.547Z,58.30
2023-01-17T19:28:56.020Z,59.50
2023-01-17T19:31:28.463Z,59.80
2023-01-17T19:33:57.410Z,61.00
2023-01-17T19:36:29.350Z,61.10
2023-01-17T19:39:04.354Z,60.20
2023-01-17T19:41:32.399Z,60.40
2023-01-17T19:44:06.764Z,60.30
2023-01-17T19:46:34.283Z,60.80
2023-01-17T19:49:01.618Z,60.10
2023-01-17T19:51:28.800Z,61.60
2023-01-17T19:53:56.602Z,61.10
2023-01-17T19:56:25.645Z,61.90
2023-01-17T19:58:52.660Z,62.70
2023-01-17T20:01:26.530Z,62.50
2023-01-17T20:03:54.537Z,61.80
2023-01-17T20:06:23.901Z,62.90
2023-01-17T20:08:50.751Z,61.00
2023-01-17T20:11:19.746Z,61.00
2023-01-17T20:13:47.958Z,62.00
2023-01-17T20:16:15.664Z,62.10
2023-01-17T20:18:43.281Z,63.20
2023-01-17T20:21:20.969Z,63.80
2023-01-17T20:23:48.497Z,62.10
2023-01-17T20:26:34.754Z,62.90
2023-01-17T20:29:11.376Z,63.20
2023-01-17T20:31:39.853Z,62.70
2023-01-17T20:34:08.368Z,62.60
2023-01-17T20:36:36.964Z,62.30
2023-01-17T20:39:07.990Z,61.50
2023-01-17T20:41:37.406Z,62.20
2023-01-17T20:44:05.971Z,61.30
2023-01-17T20:46:35.542Z,62.10
2023-01-17T20:49:05.489Z,61.80
2023-01-17T20:51:38.288Z,62.50
2023-01-17T20:54:06.522Z,63.50
2023-01-17T20:56:37.821Z,62.20
2023-01-17T20:59:11.810Z,62.00
2023-01-17T21:01:39.372Z,63.00
2023-01-17T21:04:10.593Z,64.30
2023-01-17T21:06:39.547Z,64.80
2023-01-17T21:09:09.695Z,64.70
2023-01-17T21:11:37.499Z,63.90
2023-01-17T21:14:07.318Z,62.70
2023-01-17T21:16:35.430Z,64.30
2023-01-17T21:19:02.679Z,64.10
2023-01-17T21:21:30.139Z,65.20
2023-01-17T21:23:59.025Z,63.30
2023-01-17T21:26:27.584Z,65.20
2023-01-17T21:28:55.184Z,64.40
2023-01-17T21:31:30.312Z,63.10
2023-01-17T21:33:59.861Z,64.10
2023-01-17T21:36:29.117Z,64.40
2023-01-17T21:38:57.939Z,64.10
2023-01-17T21:41:28.512Z,65.30
2023-01-17T21:43:56.764Z,64.50
2023-01-17T21:46:23.937Z,65.20
2023-01-17T21:48:50.602Z,64.50
2023-01-17T21:51:17.472Z,64.40
2023-01-17T21:53:44.154Z,64.50
2023-01-17T21:56:31.570Z,64.10
2023-01-17T21:58:59.025Z,63.70
2023-01-17T22:01:29.116Z,64.50
2023-01-17T22:04:03.362Z,65.40
2023-01-17T22:06:32.520Z,67.20
2023-01-17T22:08:59.427Z,67.50
2023-01-17T22:11:27.209Z,66.20
2023-01-17T22:13:53.996Z,65.10
2023-01-17T22:16:23.383Z,66.00
2023-01-17T22:18:50.840Z,65.10
2023-01-17T22:21:21.300Z,65.90
2023-01-17T22:23:50.652Z,66.50
2023-01-17T22:26:17.824Z,64.90
2023-01-17T22:28:44.895Z,66.00
2023-01-17T22:31:20.910Z,67.00
2023-01-17T22:33:51.886Z,66.50
2023-01-17T22:36:18.513Z,66.00
2023-01-17T22:38:45.314Z,69.00
2023-01-17T22:41:15.992Z,68.80
2023-01-17T22:43:45.145Z,68.10
2023-01-17T22:46:18.142Z,66.30
2023-01-17T22:48:45.134Z,67.40
2023-01-17T22:51:14.515Z,67.40
2023-01-17T22:53:42.604Z,67.20
2023-01-17T22:56:12.468Z,66.80
2023-01-17T22:58:44.471Z,67.40
2023-01-17T23:01:20.170Z,66.80
2023-01-17T23:03:52.143Z,67.80
2023-01-17T23:06:33.116Z,66.90
2023-01-17T23:09:02.491Z,66.00
2023-01-17T23:11:41.050Z,67.00
2023-01-17T23:14:14.643Z,67.90
2023-01-17T23:17:07.373Z,67.80
2023-01-17T23:19:42.166Z,70.10
2023-01-17T23:22:20.526Z,67.60
2023-01-17T23:24:54.080Z,67.80
2023-01-17T23:27:44.263Z,67.80
2023-01-17T23:30:20.635Z,67.90
2023-01-17T23:32:53.502Z,69.10
2023-01-17T23:35:22.733Z,68.20
2023-01-17T23:38:07.923Z,68.00
2023-01-17T23:40:35.942Z,67.70
2023-01-17T23:43:21.909Z,67.20
2023-01-17T23:45:52.242Z,66.30
2023-01-17T23:48:19.971Z,68.00
2023-01-17T23:50:48.323Z,68.40
2023-01-17T23:53:22.379Z,68.00
2023-01-17T23:55:51.943Z,68.10
2023-01-17T23:58:20.047Z,67.40
